createdAt,value
2022-08-24T00:01:43.650Z,1018.1
2022-08-24T00:07:18.025Z,1018
2022-08-24T00:12:53.550Z,1018
2022-08-24T00:18:09.211Z,1018
2022-08-24T00:23:57.979Z,1018
2022-08-24T00:29:34.384Z,1017.8
2022-08-24T00:34:51.908Z,1017.7
2022-08-24T00:40:35.007Z,1017.7
2022-08-24T00:46:09.541Z,1017.6
2022-08-24T00:51:44.890Z,1017.6
2022-08-24T00:57:07.182Z,1017.8
2022-08-24T01:02:52.630Z,1017.8
2022-08-24T01:08:22.246Z,1017.8
2022-08-24T01:13:56.094Z,1017.8
2022-08-24T01:19:37.556Z,1017.7
2022-08-24T01:30:47.845Z,1018
2022-08-24T01:36:21.684Z,1018
2022-08-24T01:41:44.477Z,1018.1
2022-08-24T01:47:44.666Z,1018.1
2022-08-24T01:53:06.096Z,1018.1
2022-08-24T01:58:42.582Z,1018.1
2022-08-24T02:04:22.240Z,1018.2
2022-08-24T02:09:35.277Z,1018.2
2022-08-24T02:15:33.495Z,1018.3
2022-08-24T02:20:56.554Z,1018.4
2022-08-24T02:26:43.898Z,1018.4
2022-08-24T02:32:20.719Z,1018.7
2022-08-24T02:37:43.969Z,1018.7
2022-08-24T02:43:30.595Z,1018.9
2022-08-24T02:48:46.963Z,1019
2022-08-24T02:54:33.934Z,1019
2022-08-24T03:00:08.238Z,1018.9
2022-08-24T03:05:32.779Z,1018.8
2022-08-24T03:11:15.123Z,1019
2022-08-24T03:16:36.486Z,1019
2022-08-24T03:22:33.532Z,1019.1
2022-08-24T03:27:56.210Z,1019.1
2022-08-24T03:33:43.429Z,1019.1
2022-08-24T03:38:53.604Z,1019.1
2022-08-24T03:44:36.181Z,1019.2
2022-08-24T03:50:08.840Z,1019.1
2022-08-24T03:55:39.523Z,1019.2
2022-08-24T04:01:32.387Z,1019.1
2022-08-24T04:07:11.669Z,1019.1
2022-08-24T04:12:45.576Z,1019
2022-08-24T04:17:59.733Z,1019
2022-08-24T04:23:47.954Z,1019.1
2022-08-24T04:29:27.077Z,1019
2022-08-24T04:34:58.424Z,1019.1
2022-08-24T04:40:11.607Z,1019.2
2022-08-24T04:45:50.336Z,1019.2
2022-08-24T04:51:23.317Z,1019.3
2022-08-24T04:56:58.854Z,1019.2
2022-08-24T05:02:48.229Z,1019.2
2022-08-24T05:08:23.649Z,1019.1
2022-08-24T05:13:38.154Z,1019.1
2022-08-24T05:19:30.061Z,1019
2022-08-24T05:24:51.051Z,1019
2022-08-24T05:30:42.599Z,1019
2022-08-24T05:36:06.396Z,1018.8
2022-08-24T05:41:51.097Z,1018.7
2022-08-24T05:47:11.875Z,1018.7
2022-08-24T05:52:50.539Z,1018.7
2022-08-24T05:58:31.104Z,1018.8
2022-08-24T06:03:54.123Z,1018.7
2022-08-24T06:09:33.717Z,1018.6
2022-08-24T06:15:24.387Z,1018.4
2022-08-24T06:20:38.994Z,1018.2
2022-08-24T06:26:35.841Z,1018.4
2022-08-24T06:31:46.657Z,1018.6
2022-08-24T06:37:28.061Z,1018.4
2022-08-24T06:42:56.840Z,1018.4
2022-08-24T06:48:52.924Z,1018.5
2022-08-24T06:54:12.280Z,1018.3
2022-08-24T06:59:49.257Z,1018.2
2022-08-24T07:05:46.067Z,1018.2
2022-08-24T07:10:57.155Z,1018.1
2022-08-24T07:16:54.983Z,1018.2
2022-08-24T07:22:36.935Z,1018.2
2022-08-24T07:28:05.706Z,1018.1
2022-08-24T07:33:37.495Z,1018
2022-08-24T07:39:12.575Z,1018
2022-08-24T07:45:03.855Z,1018.1
2022-08-24T07:50:20.931Z,1018
2022-08-24T07:56:16.594Z,1018
2022-08-24T08:01:56.655Z,1017.8
2022-08-24T08:07:13.143Z,1017.9
2022-08-24T08:13:02.658Z,1017.9
2022-08-24T08:18:52.334Z,1017.9
2022-08-24T08:24:23.943Z,1017.9
2022-08-24T08:29:46.295Z,1017.8
2022-08-24T08:35:18.765Z,1017.7
2022-08-24T08:41:00.579Z,1017.7
2022-08-24T08:46:29.221Z,1017.5
2022-08-24T08:52:32.885Z,1017.5
2022-08-24T08:57:44.753Z,1017.3
2022-08-24T09:03:28.499Z,1017.4
2022-08-24T09:09:12.135Z,1017.3
2022-08-24T09:14:53.373Z,1017.3
2022-08-24T09:20:27.367Z,1017.2
2022-08-24T09:26:24.766Z,1017.1
2022-08-24T09:31:42.478Z,1017
2022-08-24T09:37:43.471Z,1017.1
2022-08-24T09:42:52.387Z,1017.1
2022-08-24T09:48:42.227Z,1016.9
2022-08-24T09:54:15.680Z,1016.9
2022-08-24T09:59:48.138Z,1016.9
2022-08-24T10:05:38.498Z,1016.8
2022-08-24T10:11:26.785Z,1016.7
2022-08-24T10:17:02.459Z,1016.6
2022-08-24T10:22:40.421Z,1016.7
2022-08-24T10:28:13.787Z,1016.7
2022-08-24T10:33:43.684Z,1016.7
2022-08-24T10:39:24.801Z,1016.6
2022-08-24T10:45:01.099Z,1016.5
2022-08-24T10:50:35.915Z,1016.4
2022-08-24T10:56:33.215Z,1016.5
2022-08-24T11:01:58.430Z,1016.4
2022-08-24T11:07:48.460Z,1016.4
2022-08-24T11:13:23.627Z,1016.4
2022-08-24T11:18:59.253Z,1016.3
2022-08-24T11:24:18.962Z,1016.2
2022-08-24T11:29:59.301Z,1016.2
2022-08-24T11:35:35.941Z,1016.2
2022-08-24T11:41:18.168Z,1016
2022-08-24T11:47:12.038Z,1016
2022-08-24T11:52:52.537Z,1016.2
2022-08-24T11:58:15.919Z,1015.9
2022-08-24T12:03:56.893Z,1015.8
2022-08-24T12:09:33.310Z,1015.9
2022-08-24T12:15:29.277Z,1015.9
2022-08-24T12:21:12.647Z,1015.8
2022-08-24T12:26:52.150Z,1015.8
2022-08-24T12:32:14.455Z,1015.8
2022-08-24T12:37:43.411Z,1015.7
2022-08-24T12:43:46.225Z,1015.6
2022-08-24T12:49:09.407Z,1015.6
2022-08-24T12:54:59.915Z,1015.6
2022-08-24T13:00:29.215Z,1015.5
2022-08-24T13:06:08.641Z,1015.6
2022-08-24T13:12:03.524Z,1015.5
2022-08-24T13:17:21.775Z,1015.4
2022-08-24T13:23:22.771Z,1015.4
2022-08-24T13:29:00.866Z,1015.4
2022-08-24T13:34:20.849Z,1015.3
2022-08-24T13:39:57.251Z,1015.3
2022-08-24T13:45:37.422Z,1015.3
2022-08-24T13:51:09.476Z,1015.3
2022-08-24T13:57:05.096Z,1015.3
2022-08-24T14:02:38.265Z,1015.3
2022-08-24T14:08:22.902Z,1015.2
2022-08-24T14:14:11.302Z,1015.3
2022-08-24T14:19:33.346Z,1015.3
2022-08-24T14:25:24.489Z,1015.2
2022-08-24T14:30:40.476Z,1015.1
2022-08-24T14:36:32.712Z,1015.1
2022-08-24T14:42:18.978Z,1015.1
2022-08-24T14:47:39.954Z,1015.1
2022-08-24T14:53:19.328Z,1014.9
2022-08-24T14:59:14.233Z,1015
2022-08-24T15:04:37.206Z,1015
2022-08-24T15:10:31.281Z,1015
2022-08-24T15:16:12.395Z,1015
2022-08-24T15:21:35.481Z,1014.9
2022-08-24T15:27:25.750Z,1014.9
2022-08-24T15:33:05.291Z,1014.9
2022-08-24T15:38:42.831Z,1014.9
2022-08-24T15:44:11.598Z,1014.9
2022-08-24T15:49:57.561Z,1014.8
2022-08-24T15:55:41.984Z,1014.9
2022-08-24T16:01:20.364Z,1014.9
2022-08-24T16:06:56.797Z,1015
2022-08-24T16:12:32.510Z,1015
2022-08-24T16:17:54.929Z,1015
2022-08-24T16:23:48.606Z,1014.9
2022-08-24T16:29:08.559Z,1014.9
2022-08-24T16:35:08.663Z,1014.9
2022-08-24T16:40:34.932Z,1015
2022-08-24T16:46:17.378Z,1014.9
2022-08-24T16:51:36.467Z,1015.1
2022-08-24T16:57:31.003Z,1015.1
2022-08-24T17:03:17.657Z,1015.1
2022-08-24T17:08:41.862Z,1015.1
2022-08-24T17:14:16.461Z,1015.2
2022-08-24T17:19:51.667Z,1015.3
2022-08-24T17:25:50.845Z,1015.2
2022-08-24T17:31:31.213Z,1015.2
2022-08-24T17:36:55.363Z,1015.4
2022-08-24T17:42:51.070Z,1015.4
2022-08-24T17:48:20.486Z,1015.5
2022-08-24T17:53:53.321Z,1015.6
2022-08-24T17:59:17.699Z,1015.6
2022-08-24T18:05:14.831Z,1015.7
2022-08-24T18:10:40.978Z,1015.7
2022-08-24T18:16:21.856Z,1015.8
2022-08-24T18:21:47.285Z,1015.8
2022-08-24T18:27:33.209Z,1015.8
2022-08-24T18:33:01.559Z,1015.8
2022-08-24T18:38:51.091Z,1016
2022-08-24T18:44:01.951Z,1015.9
2022-08-24T18:49:53.015Z,1016
2022-08-24T18:55:16.064Z,1016.1
2022-08-24T19:00:55.242Z,1016.2
2022-08-24T19:06:25.603Z,1016.4
2022-08-24T19:12:22.422Z,1016.4
2022-08-24T19:17:54.194Z,1016.5
2022-08-24T19:23:13.013Z,1016.5
2022-08-24T19:28:57.728Z,1016.5
2022-08-24T19:34:44.487Z,1016.5
2022-08-24T19:40:02.943Z,1016.5
2022-08-24T19:45:42.758Z,1016.5
2022-08-24T19:51:34.212Z,1016.5
2022-08-24T19:56:57.048Z,1016.5
2022-08-24T20:02:39.210Z,1016.4
2022-08-24T20:08:20.330Z,1016.4
2022-08-24T20:13:33.426Z,1016.4
2022-08-24T20:19:13.934Z,1016.4
2022-08-24T20:24:41.516Z,1016.4
2022-08-24T20:30:40.838Z,1016.4
2022-08-24T20:36:08.576Z,1016.5
2022-08-24T20:41:32.327Z,1016.4
2022-08-24T20:47:16.832Z,1016.6
2022-08-24T20:53:00.448Z,1016.6
2022-08-24T20:58:11.614Z,1016.6
2022-08-24T21:04:05.209Z,1016.5
2022-08-24T21:09:28.414Z,1016.6
2022-08-24T21:15:08.658Z,1016.6
2022-08-24T21:20:30.062Z,1016.6
2022-08-24T21:26:17.169Z,1016.7
2022-08-24T21:31:56.406Z,1016.7
2022-08-24T21:37:25.625Z,1016.8
2022-08-24T21:43:15.020Z,1017.2
2022-08-24T21:48:39.591Z,1017.3
2022-08-24T21:54:08.094Z,1017.4
2022-08-24T22:00:00.293Z,1017.1
2022-08-24T22:05:15.136Z,1016.8
2022-08-24T22:10:45.566Z,1016.8
2022-08-24T22:16:40.605Z,1016.8
2022-08-24T22:22:07.169Z,1016.7
2022-08-24T22:27:28.091Z,1016.7
2022-08-24T22:33:16.729Z,1016.7
2022-08-24T22:38:52.481Z,1016.7
2022-08-24T22:44:19.800Z,1016.7
2022-08-24T22:49:53.581Z,1016.8
2022-08-24T22:55:50.113Z,1017.2
2022-08-24T23:00:57.172Z,1017.5
2022-08-24T23:06:48.246Z,1017.5
2022-08-24T23:12:15.645Z,1017.5
2022-08-24T23:18:00.872Z,1017.3
2022-08-24T23:23:37.780Z,1017.3
2022-08-24T23:29:00.653Z,1017.3
2022-08-24T23:34:51.349Z,1017.1
2022-08-24T23:40:27.178Z,1017.1
2022-08-24T23:45:36.941Z,1017
2022-08-24T23:51:34.630Z,1017
2022-08-24T23:56:52.588Z,1017.1
